sensor_id;sensor_type;location;lat;lon;timestamp;P1;durP1;ratioP1;P2;durP2;ratioP2
55025;SDS011;40925;45.666;18.994;2023-06-26T00:01:20;8.98;;;5.93;;
55025;SDS011;40925;45.666;18.994;2023-06-26T00:03:47;7.40;;;5.65;;
55025;SDS011;40925;45.666;18.994;2023-06-26T00:06:13;8.20;;;5.60;;
55025;SDS011;40925;45.666;18.994;2023-06-26T00:08:39;7.90;;;5.82;;
55025;SDS011;40925;45.666;18.994;2023-06-26T00:11:06;9.27;;;6.30;;
55025;SDS011;40925;45.666;18.994;2023-06-26T00:13:33;9.00;;;6.20;;
55025;SDS011;40925;45.666;18.994;2023-06-26T00:15:59;9.27;;;6.10;;
55025;SDS011;40925;45.666;18.994;2023-06-26T00:18:28;9.30;;;6.00;;
55025;SDS011;40925;45.666;18.994;2023-06-26T00:20:54;7.43;;;5.78;;
55025;SDS011;40925;45.666;18.994;2023-06-26T00:23:20;9.15;;;5.80;;
55025;SDS011;40925;45.666;18.994;2023-06-26T00:25:46;7.68;;;5.70;;
55025;SDS011;40925;45.666;18.994;2023-06-26T00:28:12;8.77;;;6.18;;
55025;SDS011;40925;45.666;18.994;2023-06-26T00:30:39;8.55;;;6.13;;
55025;SDS011;40925;45.666;18.994;2023-06-26T00:33:05;7.70;;;6.00;;
55025;SDS011;40925;45.666;18.994;2023-06-26T00:35:31;8.45;;;6.00;;
55025;SDS011;40925;45.666;18.994;2023-06-26T00:37:57;8.73;;;6.28;;
55025;SDS011;40925;45.666;18.994;2023-06-26T00:40:23;10.57;;;6.50;;
55025;SDS011;40925;45.666;18.994;2023-06-26T00:42:51;8.02;;;6.13;;
55025;SDS011;40925;45.666;18.994;2023-06-26T00:45:17;9.82;;;6.22;;
55025;SDS011;40925;45.666;18.994;2023-06-26T00:47:43;8.38;;;6.60;;
55025;SDS011;40925;45.666;18.994;2023-06-26T00:50:09;8.02;;;6.38;;
55025;SDS011;40925;45.666;18.994;2023-06-26T00:52:35;9.80;;;6.72;;
55025;SDS011;40925;45.666;18.994;2023-06-26T00:55:02;9.95;;;7.00;;
55025;SDS011;40925;45.666;18.994;2023-06-26T00:57:29;10.32;;;6.88;;
55025;SDS011;40925;45.666;18.994;2023-06-26T00:59:56;9.07;;;6.75;;
55025;SDS011;40925;45.666;18.994;2023-06-26T01:02:22;9.00;;;6.75;;
55025;SDS011;40925;45.666;18.994;2023-06-26T01:04:50;8.93;;;6.95;;
55025;SDS011;40925;45.666;18.994;2023-06-26T01:07:18;9.88;;;7.28;;
55025;SDS011;40925;45.666;18.994;2023-06-26T01:09:46;9.50;;;7.15;;
55025;SDS011;40925;45.666;18.994;2023-06-26T01:12:13;10.02;;;7.20;;
55025;SDS011;40925;45.666;18.994;2023-06-26T01:14:39;11.43;;;7.18;;
55025;SDS011;40925;45.666;18.994;2023-06-26T01:17:05;9.60;;;7.72;;
55025;SDS011;40925;45.666;18.994;2023-06-26T01:19:32;10.48;;;7.85;;
55025;SDS011;40925;45.666;18.994;2023-06-26T01:24:39;11.63;;;8.27;;
55025;SDS011;40925;45.666;18.994;2023-06-26T01:27:13;11.20;;;7.93;;
55025;SDS011;40925;45.666;18.994;2023-06-26T01:29:39;9.38;;;7.68;;
55025;SDS011;40925;45.666;18.994;2023-06-26T01:32:07;9.70;;;7.55;;
55025;SDS011;40925;45.666;18.994;2023-06-26T01:34:33;10.75;;;8.02;;
55025;SDS011;40925;45.666;18.994;2023-06-26T01:36:59;9.40;;;7.47;;
55025;SDS011;40925;45.666;18.994;2023-06-26T01:39:25;10.95;;;8.02;;
55025;SDS011;40925;45.666;18.994;2023-06-26T01:41:51;12.65;;;8.02;;
55025;SDS011;40925;45.666;18.994;2023-06-26T01:44:27;10.48;;;7.63;;
55025;SDS011;40925;45.666;18.994;2023-06-26T01:47:04;10.73;;;7.70;;
55025;SDS011;40925;45.666;18.994;2023-06-26T01:52:27;10.05;;;7.50;;
55025;SDS011;40925;45.666;18.994;2023-06-26T01:57:30;10.23;;;7.75;;
55025;SDS011;40925;45.666;18.994;2023-06-26T01:59:56;10.48;;;7.80;;
55025;SDS011;40925;45.666;18.994;2023-06-26T02:02:24;11.02;;;7.90;;
55025;SDS011;40925;45.666;18.994;2023-06-26T02:04:50;10.13;;;7.55;;
55025;SDS011;40925;45.666;18.994;2023-06-26T02:07:16;12.13;;;7.60;;
55025;SDS011;40925;45.666;18.994;2023-06-26T02:09:42;10.77;;;7.82;;
55025;SDS011;40925;45.666;18.994;2023-06-26T02:12:08;10.43;;;8.07;;
55025;SDS011;40925;45.666;18.994;2023-06-26T02:14:34;11.18;;;7.60;;
55025;SDS011;40925;45.666;18.994;2023-06-26T02:17:00;11.40;;;7.65;;
55025;SDS011;40925;45.666;18.994;2023-06-26T02:19:26;9.88;;;7.60;;
55025;SDS011;40925;45.666;18.994;2023-06-26T02:21:52;9.93;;;7.63;;
55025;SDS011;40925;45.666;18.994;2023-06-26T02:24:18;10.15;;;7.28;;
55025;SDS011;40925;45.666;18.994;2023-06-26T02:26:44;11.00;;;7.88;;
55025;SDS011;40925;45.666;18.994;2023-06-26T02:29:11;9.70;;;7.32;;
55025;SDS011;40925;45.666;18.994;2023-06-26T02:31:37;10.68;;;7.95;;
55025;SDS011;40925;45.666;18.994;2023-06-26T02:34:03;9.35;;;7.13;;
55025;SDS011;40925;45.666;18.994;2023-06-26T02:36:29;9.57;;;7.45;;
55025;SDS011;40925;45.666;18.994;2023-06-26T02:38:55;9.13;;;7.40;;
55025;SDS011;40925;45.666;18.994;2023-06-26T02:41:21;9.88;;;7.45;;
55025;SDS011;40925;45.666;18.994;2023-06-26T02:43:48;12.55;;;7.57;;
55025;SDS011;40925;45.666;18.994;2023-06-26T02:46:14;11.15;;;7.78;;
55025;SDS011;40925;45.666;18.994;2023-06-26T02:48:40;12.30;;;7.40;;
55025;SDS011;40925;45.666;18.994;2023-06-26T02:51:06;10.95;;;7.60;;
55025;SDS011;40925;45.666;18.994;2023-06-26T02:53:33;11.60;;;7.53;;
55025;SDS011;40925;45.666;18.994;2023-06-26T02:55:59;11.60;;;7.70;;
55025;SDS011;40925;45.666;18.994;2023-06-26T02:58:25;9.73;;;7.13;;
55025;SDS011;40925;45.666;18.994;2023-06-26T03:00:51;10.57;;;8.07;;
55025;SDS011;40925;45.666;18.994;2023-06-26T03:03:18;10.23;;;7.35;;
55025;SDS011;40925;45.666;18.994;2023-06-26T03:05:44;10.52;;;7.63;;
55025;SDS011;40925;45.666;18.994;2023-06-26T03:08:10;10.65;;;7.60;;
55025;SDS011;40925;45.666;18.994;2023-06-26T03:10:36;10.68;;;7.70;;
55025;SDS011;40925;45.666;18.994;2023-06-26T03:13:02;8.77;;;6.78;;
55025;SDS011;40925;45.666;18.994;2023-06-26T03:15:29;9.05;;;7.32;;
55025;SDS011;40925;45.666;18.994;2023-06-26T03:17:55;9.90;;;7.38;;
55025;SDS011;40925;45.666;18.994;2023-06-26T03:20:21;11.18;;;7.35;;
55025;SDS011;40925;45.666;18.994;2023-06-26T03:22:47;12.15;;;8.10;;
55025;SDS011;40925;45.666;18.994;2023-06-26T03:25:13;9.50;;;7.50;;
55025;SDS011;40925;45.666;18.994;2023-06-26T03:27:39;11.25;;;7.95;;
55025;SDS011;40925;45.666;18.994;2023-06-26T03:30:05;9.98;;;7.70;;
55025;SDS011;40925;45.666;18.994;2023-06-26T03:32:31;10.40;;;7.63;;
55025;SDS011;40925;45.666;18.994;2023-06-26T03:34:57;11.27;;;7.85;;
55025;SDS011;40925;45.666;18.994;2023-06-26T03:37:23;11.30;;;8.05;;
55025;SDS011;40925;45.666;18.994;2023-06-26T03:39:49;11.32;;;7.57;;
55025;SDS011;40925;45.666;18.994;2023-06-26T03:42:15;10.60;;;7.50;;
55025;SDS011;40925;45.666;18.994;2023-06-26T03:44:41;9.80;;;7.60;;
55025;SDS011;40925;45.666;18.994;2023-06-26T03:47:07;9.63;;;7.93;;
55025;SDS011;40925;45.666;18.994;2023-06-26T03:49:33;11.00;;;7.35;;
55025;SDS011;40925;45.666;18.994;2023-06-26T03:52:00;10.52;;;7.78;;
55025;SDS011;40925;45.666;18.994;2023-06-26T03:54:26;10.23;;;7.90;;
55025;SDS011;40925;45.666;18.994;2023-06-26T03:56:52;11.35;;;7.65;;
55025;SDS011;40925;45.666;18.994;2023-06-26T03:59:18;10.23;;;7.53;;
55025;SDS011;40925;45.666;18.994;2023-06-26T04:01:44;10.50;;;7.47;;
55025;SDS011;40925;45.666;18.994;2023-06-26T04:04:10;10.63;;;7.82;;
55025;SDS011;40925;45.666;18.994;2023-06-26T04:06:36;10.15;;;7.45;;
55025;SDS011;40925;45.666;18.994;2023-06-26T04:09:02;10.50;;;7.35;;
55025;SDS011;40925;45.666;18.994;2023-06-26T04:11:29;11.18;;;7.43;;
55025;SDS011;40925;45.666;18.994;2023-06-26T04:13:56;10.13;;;7.70;;
55025;SDS011;40925;45.666;18.994;2023-06-26T04:16:22;11.90;;;7.63;;
55025;SDS011;40925;45.666;18.994;2023-06-26T04:18:50;10.57;;;7.22;;
55025;SDS011;40925;45.666;18.994;2023-06-26T04:21:16;8.55;;;6.75;;
55025;SDS011;40925;45.666;18.994;2023-06-26T04:23:42;9.90;;;7.38;;
55025;SDS011;40925;45.666;18.994;2023-06-26T04:26:09;10.55;;;7.03;;
55025;SDS011;40925;45.666;18.994;2023-06-26T04:28:38;10.27;;;7.50;;
55025;SDS011;40925;45.666;18.994;2023-06-26T04:31:03;9.02;;;6.85;;
55025;SDS011;40925;45.666;18.994;2023-06-26T04:33:29;10.65;;;7.10;;
55025;SDS011;40925;45.666;18.994;2023-06-26T04:35:55;12.13;;;7.45;;
55025;SDS011;40925;45.666;18.994;2023-06-26T04:38:21;10.77;;;7.00;;
55025;SDS011;40925;45.666;18.994;2023-06-26T04:40:47;9.57;;;7.00;;
55025;SDS011;40925;45.666;18.994;2023-06-26T04:43:13;10.35;;;7.10;;
55025;SDS011;40925;45.666;18.994;2023-06-26T04:45:40;8.45;;;6.50;;
55025;SDS011;40925;45.666;18.994;2023-06-26T04:48:05;9.20;;;6.88;;
55025;SDS011;40925;45.666;18.994;2023-06-26T04:50:31;10.85;;;7.10;;
55025;SDS011;40925;45.666;18.994;2023-06-26T04:52:58;9.20;;;6.40;;
55025;SDS011;40925;45.666;18.994;2023-06-26T04:55:24;8.60;;;6.13;;
55025;SDS011;40925;45.666;18.994;2023-06-26T04:57:50;11.30;;;6.65;;
55025;SDS011;40925;45.666;18.994;2023-06-26T05:00:17;10.85;;;6.40;;
55025;SDS011;40925;45.666;18.994;2023-06-26T05:02:43;8.52;;;6.43;;
55025;SDS011;40925;45.666;18.994;2023-06-26T05:05:09;8.23;;;6.03;;
55025;SDS011;40925;45.666;18.994;2023-06-26T05:07:35;9.48;;;6.22;;
55025;SDS011;40925;45.666;18.994;2023-06-26T05:10:01;7.88;;;6.60;;
55025;SDS011;40925;45.666;18.994;2023-06-26T05:12:27;9.13;;;6.20;;
55025;SDS011;40925;45.666;18.994;2023-06-26T05:14:55;8.43;;;6.28;;
55025;SDS011;40925;45.666;18.994;2023-06-26T05:17:20;7.40;;;6.00;;
55025;SDS011;40925;45.666;18.994;2023-06-26T05:19:46;8.70;;;6.40;;
55025;SDS011;40925;45.666;18.994;2023-06-26T05:22:12;8.52;;;5.93;;
55025;SDS011;40925;45.666;18.994;2023-06-26T05:24:42;10.98;;;6.25;;
55025;SDS011;40925;45.666;18.994;2023-06-26T05:27:11;9.05;;;6.28;;
55025;SDS011;40925;45.666;18.994;2023-06-26T05:29:44;10.25;;;6.05;;
55025;SDS011;40925;45.666;18.994;2023-06-26T05:35:04;7.28;;;5.55;;
55025;SDS011;40925;45.666;18.994;2023-06-26T05:37:33;10.85;;;5.95;;
55025;SDS011;40925;45.666;18.994;2023-06-26T05:40:00;9.63;;;6.68;;
55025;SDS011;40925;45.666;18.994;2023-06-26T05:42:28;9.52;;;6.22;;
55025;SDS011;40925;45.666;18.994;2023-06-26T05:44:55;7.72;;;5.80;;
55025;SDS011;40925;45.666;18.994;2023-06-26T05:47:21;8.55;;;5.85;;
55025;SDS011;40925;45.666;18.994;2023-06-26T05:49:47;7.55;;;5.50;;
55025;SDS011;40925;45.666;18.994;2023-06-26T05:52:13;6.90;;;5.97;;
55025;SDS011;40925;45.666;18.994;2023-06-26T05:54:39;11.38;;;5.90;;
55025;SDS011;40925;45.666;18.994;2023-06-26T05:57:05;8.48;;;6.10;;
55025;SDS011;40925;45.666;18.994;2023-06-26T05:59:31;8.65;;;5.90;;
55025;SDS011;40925;45.666;18.994;2023-06-26T06:01:58;9.02;;;5.80;;
55025;SDS011;40925;45.666;18.994;2023-06-26T06:04:24;11.70;;;6.75;;
55025;SDS011;40925;45.666;18.994;2023-06-26T06:06:49;10.00;;;6.50;;
55025;SDS011;40925;45.666;18.994;2023-06-26T06:09:15;9.95;;;6.28;;
55025;SDS011;40925;45.666;18.994;2023-06-26T06:11:41;8.05;;;5.70;;
55025;SDS011;40925;45.666;18.994;2023-06-26T06:14:07;7.85;;;5.95;;
55025;SDS011;40925;45.666;18.994;2023-06-26T06:16:33;10.10;;;6.15;;
55025;SDS011;40925;45.666;18.994;2023-06-26T06:22:02;8.23;;;6.20;;
55025;SDS011;40925;45.666;18.994;2023-06-26T06:24:28;8.43;;;6.18;;
55025;SDS011;40925;45.666;18.994;2023-06-26T06:26:54;10.85;;;6.38;;
55025;SDS011;40925;45.666;18.994;2023-06-26T06:29:20;8.70;;;6.00;;
55025;SDS011;40925;45.666;18.994;2023-06-26T06:31:45;7.50;;;6.10;;
55025;SDS011;40925;45.666;18.994;2023-06-26T06:34:11;8.88;;;5.82;;
55025;SDS011;40925;45.666;18.994;2023-06-26T06:36:38;8.60;;;6.03;;
55025;SDS011;40925;45.666;18.994;2023-06-26T06:39:04;9.30;;;6.25;;
55025;SDS011;40925;45.666;18.994;2023-06-26T06:41:29;7.70;;;6.30;;
55025;SDS011;40925;45.666;18.994;2023-06-26T06:43:55;8.13;;;6.10;;
55025;SDS011;40925;45.666;18.994;2023-06-26T06:46:21;9.00;;;6.07;;
55025;SDS011;40925;45.666;18.994;2023-06-26T06:48:46;9.13;;;6.28;;
55025;SDS011;40925;45.666;18.994;2023-06-26T06:51:12;10.23;;;5.47;;
55025;SDS011;40925;45.666;18.994;2023-06-26T06:53:38;9.18;;;6.20;;
55025;SDS011;40925;45.666;18.994;2023-06-26T06:56:04;7.13;;;5.82;;
55025;SDS011;40925;45.666;18.994;2023-06-26T06:58:29;7.38;;;5.85;;
55025;SDS011;40925;45.666;18.994;2023-06-26T07:00:58;8.25;;;5.90;;
55025;SDS011;40925;45.666;18.994;2023-06-26T07:03:24;8.68;;;5.47;;
55025;SDS011;40925;45.666;18.994;2023-06-26T07:05:50;7.72;;;5.90;;
55025;SDS011;40925;45.666;18.994;2023-06-26T07:08:16;9.82;;;6.13;;
55025;SDS011;40925;45.666;18.994;2023-06-26T07:10:42;9.43;;;6.07;;
55025;SDS011;40925;45.666;18.994;2023-06-26T07:13:07;9.45;;;6.50;;
55025;SDS011;40925;45.666;18.994;2023-06-26T07:15:33;10.90;;;6.30;;
55025;SDS011;40925;45.666;18.994;2023-06-26T07:18:00;8.52;;;6.32;;
55025;SDS011;40925;45.666;18.994;2023-06-26T07:20:26;10.35;;;5.97;;
55025;SDS011;40925;45.666;18.994;2023-06-26T07:22:52;9.10;;;6.38;;
55025;SDS011;40925;45.666;18.994;2023-06-26T07:25:18;9.50;;;6.55;;
55025;SDS011;40925;45.666;18.994;2023-06-26T07:27:44;9.35;;;6.72;;
55025;SDS011;40925;45.666;18.994;2023-06-26T07:30:10;9.48;;;6.20;;
55025;SDS011;40925;45.666;18.994;2023-06-26T07:32:37;8.63;;;6.28;;
55025;SDS011;40925;45.666;18.994;2023-06-26T07:35:03;9.07;;;6.30;;
55025;SDS011;40925;45.666;18.994;2023-06-26T07:37:29;6.90;;;5.78;;
55025;SDS011;40925;45.666;18.994;2023-06-26T07:39:55;7.88;;;6.38;;
55025;SDS011;40925;45.666;18.994;2023-06-26T07:42:21;10.13;;;6.60;;
55025;SDS011;40925;45.666;18.994;2023-06-26T07:44:47;8.10;;;6.80;;
55025;SDS011;40925;45.666;18.994;2023-06-26T07:47:13;8.40;;;6.30;;
55025;SDS011;40925;45.666;18.994;2023-06-26T07:49:39;9.63;;;6.68;;
55025;SDS011;40925;45.666;18.994;2023-06-26T07:52:06;8.30;;;6.65;;
55025;SDS011;40925;45.666;18.994;2023-06-26T07:54:31;7.32;;;6.18;;
55025;SDS011;40925;45.666;18.994;2023-06-26T07:57:01;7.40;;;6.20;;
55025;SDS011;40925;45.666;18.994;2023-06-26T07:59:28;9.15;;;6.47;;
55025;SDS011;40925;45.666;18.994;2023-06-26T08:01:55;8.68;;;6.75;;
55025;SDS011;40925;45.666;18.994;2023-06-26T08:04:23;12.07;;;6.53;;
55025;SDS011;40925;45.666;18.994;2023-06-26T08:06:52;12.02;;;6.60;;
55025;SDS011;40925;45.666;18.994;2023-06-26T08:09:20;8.23;;;6.38;;
55025;SDS011;40925;45.666;18.994;2023-06-26T08:11:46;9.70;;;6.88;;
55025;SDS011;40925;45.666;18.994;2023-06-26T08:14:13;8.27;;;6.60;;
55025;SDS011;40925;45.666;18.994;2023-06-26T08:16:39;10.25;;;6.32;;
55025;SDS011;40925;45.666;18.994;2023-06-26T08:19:06;10.20;;;6.93;;
55025;SDS011;40925;45.666;18.994;2023-06-26T08:21:32;10.98;;;7.13;;
55025;SDS011;40925;45.666;18.994;2023-06-26T08:24:00;11.68;;;7.38;;
55025;SDS011;40925;45.666;18.994;2023-06-26T08:26:28;10.30;;;6.68;;
55025;SDS011;40925;45.666;18.994;2023-06-26T08:28:55;8.77;;;7.10;;
55025;SDS011;40925;45.666;18.994;2023-06-26T08:31:21;7.82;;;6.63;;
55025;SDS011;40925;45.666;18.994;2023-06-26T08:33:47;8.95;;;6.95;;
55025;SDS011;40925;45.666;18.994;2023-06-26T08:36:13;12.45;;;7.20;;
55025;SDS011;40925;45.666;18.994;2023-06-26T08:38:39;8.02;;;6.60;;
55025;SDS011;40925;45.666;18.994;2023-06-26T08:41:06;9.10;;;6.70;;
55025;SDS011;40925;45.666;18.994;2023-06-26T08:43:32;8.52;;;6.78;;
55025;SDS011;40925;45.666;18.994;2023-06-26T08:45:59;9.27;;;6.47;;
55025;SDS011;40925;45.666;18.994;2023-06-26T08:48:25;9.95;;;6.97;;
55025;SDS011;40925;45.666;18.994;2023-06-26T08:50:53;8.27;;;6.65;;
55025;SDS011;40925;45.666;18.994;2023-06-26T08:53:33;8.55;;;6.75;;
55025;SDS011;40925;45.666;18.994;2023-06-26T08:56:02;8.88;;;7.07;;
55025;SDS011;40925;45.666;18.994;2023-06-26T08:58:28;8.85;;;6.70;;
55025;SDS011;40925;45.666;18.994;2023-06-26T09:00:54;9.98;;;6.63;;
55025;SDS011;40925;45.666;18.994;2023-06-26T09:03:21;8.75;;;6.75;;
55025;SDS011;40925;45.666;18.994;2023-06-26T09:05:47;9.60;;;7.38;;
55025;SDS011;40925;45.666;18.994;2023-06-26T09:08:16;7.90;;;6.47;;
55025;SDS011;40925;45.666;18.994;2023-06-26T09:10:42;8.52;;;6.53;;
55025;SDS011;40925;45.666;18.994;2023-06-26T09:13:07;9.13;;;6.70;;
55025;SDS011;40925;45.666;18.994;2023-06-26T09:15:38;7.95;;;6.85;;
55025;SDS011;40925;45.666;18.994;2023-06-26T09:18:07;8.07;;;6.68;;
55025;SDS011;40925;45.666;18.994;2023-06-26T09:20:33;7.55;;;6.63;;
55025;SDS011;40925;45.666;18.994;2023-06-26T09:23:00;8.70;;;6.63;;
55025;SDS011;40925;45.666;18.994;2023-06-26T09:25:27;8.18;;;6.80;;
55025;SDS011;40925;45.666;18.994;2023-06-26T09:27:53;9.00;;;6.90;;
55025;SDS011;40925;45.666;18.994;2023-06-26T09:30:19;10.55;;;6.97;;
55025;SDS011;40925;45.666;18.994;2023-06-26T09:33:06;8.52;;;6.78;;
55025;SDS011;40925;45.666;18.994;2023-06-26T09:35:42;9.48;;;6.43;;
55025;SDS011;40925;45.666;18.994;2023-06-26T09:38:09;8.18;;;6.97;;
55025;SDS011;40925;45.666;18.994;2023-06-26T09:40:36;9.05;;;7.00;;
55025;SDS011;40925;45.666;18.994;2023-06-26T09:43:06;8.93;;;6.63;;
55025;SDS011;40925;45.666;18.994;2023-06-26T09:45:33;8.90;;;6.30;;
55025;SDS011;40925;45.666;18.994;2023-06-26T09:48:01;9.55;;;6.15;;
55025;SDS011;40925;45.666;18.994;2023-06-26T09:50:33;8.05;;;6.47;;
55025;SDS011;40925;45.666;18.994;2023-06-26T09:53:09;10.52;;;6.63;;
55025;SDS011;40925;45.666;18.994;2023-06-26T09:55:36;8.25;;;6.25;;
55025;SDS011;40925;45.666;18.994;2023-06-26T09:58:02;8.32;;;6.30;;
55025;SDS011;40925;45.666;18.994;2023-06-26T10:00:32;6.63;;;5.88;;
55025;SDS011;40925;45.666;18.994;2023-06-26T10:03:07;8.00;;;6.03;;
55025;SDS011;40925;45.666;18.994;2023-06-26T10:05:33;8.85;;;5.95;;
55025;SDS011;40925;45.666;18.994;2023-06-26T10:08:00;8.15;;;6.47;;
55025;SDS011;40925;45.666;18.994;2023-06-26T10:10:27;8.45;;;6.20;;
55025;SDS011;40925;45.666;18.994;2023-06-26T10:12:54;8.18;;;6.03;;
55025;SDS011;40925;45.666;18.994;2023-06-26T10:15:24;8.68;;;6.50;;
55025;SDS011;40925;45.666;18.994;2023-06-26T10:17:52;7.50;;;6.07;;
55025;SDS011;40925;45.666;18.994;2023-06-26T10:20:22;8.75;;;6.03;;
55025;SDS011;40925;45.666;18.994;2023-06-26T10:22:49;6.25;;;5.28;;
55025;SDS011;40925;45.666;18.994;2023-06-26T10:25:19;5.65;;;4.40;;
55025;SDS011;40925;45.666;18.994;2023-06-26T10:27:47;5.32;;;4.50;;
55025;SDS011;40925;45.666;18.994;2023-06-26T10:30:19;10.52;;;4.47;;
55025;SDS011;40925;45.666;18.994;2023-06-26T10:32:52;6.53;;;4.43;;
55025;SDS011;40925;45.666;18.994;2023-06-26T10:35:18;5.60;;;4.45;;
55025;SDS011;40925;45.666;18.994;2023-06-26T10:37:48;7.75;;;5.00;;
55025;SDS011;40925;45.666;18.994;2023-06-26T10:43:11;6.95;;;5.18;;
55025;SDS011;40925;45.666;18.994;2023-06-26T10:48:22;6.40;;;5.50;;
55025;SDS011;40925;45.666;18.994;2023-06-26T10:50:47;8.02;;;5.40;;
55025;SDS011;40925;45.666;18.994;2023-06-26T10:58:28;13.38;;;5.60;;
55025;SDS011;40925;45.666;18.994;2023-06-26T11:03:37;13.05;;;5.78;;
55025;SDS011;40925;45.666;18.994;2023-06-26T11:06:09;7.82;;;5.57;;
55025;SDS011;40925;45.666;18.994;2023-06-26T11:11:12;9.60;;;4.95;;
55025;SDS011;40925;45.666;18.994;2023-06-26T11:13:37;5.38;;;4.72;;
55025;SDS011;40925;45.666;18.994;2023-06-26T11:16:05;5.50;;;4.53;;
55025;SDS011;40925;45.666;18.994;2023-06-26T11:18:31;6.60;;;4.97;;
55025;SDS011;40925;45.666;18.994;2023-06-26T11:21:07;6.50;;;4.50;;
55025;SDS011;40925;45.666;18.994;2023-06-26T11:23:34;6.18;;;4.90;;
55025;SDS011;40925;45.666;18.994;2023-06-26T11:28:56;5.10;;;4.05;;
55025;SDS011;40925;45.666;18.994;2023-06-26T11:31:29;5.38;;;4.22;;
55025;SDS011;40925;45.666;18.994;2023-06-26T11:33:57;6.05;;;4.00;;
55025;SDS011;40925;45.666;18.994;2023-06-26T11:36:28;6.03;;;3.70;;
55025;SDS011;40925;45.666;18.994;2023-06-26T11:39:01;5.88;;;3.58;;
55025;SDS011;40925;45.666;18.994;2023-06-26T11:41:28;6.25;;;4.00;;
55025;SDS011;40925;45.666;18.994;2023-06-26T11:43:55;4.50;;;3.63;;
55025;SDS011;40925;45.666;18.994;2023-06-26T11:46:45;4.90;;;3.75;;
55025;SDS011;40925;45.666;18.994;2023-06-26T11:49:11;5.30;;;3.75;;
55025;SDS011;40925;45.666;18.994;2023-06-26T11:51:36;5.20;;;3.42;;
55025;SDS011;40925;45.666;18.994;2023-06-26T11:54:02;4.45;;;3.53;;
55025;SDS011;40925;45.666;18.994;2023-06-26T11:56:29;4.63;;;3.22;;
55025;SDS011;40925;45.666;18.994;2023-06-26T12:01:41;4.88;;;3.10;;
55025;SDS011;40925;45.666;18.994;2023-06-26T12:04:11;4.07;;;2.90;;
55025;SDS011;40925;45.666;18.994;2023-06-26T12:06:40;4.28;;;3.05;;
55025;SDS011;40925;45.666;18.994;2023-06-26T12:09:10;5.60;;;3.38;;
55025;SDS011;40925;45.666;18.994;2023-06-26T12:11:38;4.35;;;3.63;;
55025;SDS011;40925;45.666;18.994;2023-06-26T12:14:07;4.25;;;3.00;;
55025;SDS011;40925;45.666;18.994;2023-06-26T12:16:33;3.85;;;3.03;;
55025;SDS011;40925;45.666;18.994;2023-06-26T12:19:00;5.18;;;3.50;;
55025;SDS011;40925;45.666;18.994;2023-06-26T12:23:59;4.68;;;3.35;;
55025;SDS011;40925;45.666;18.994;2023-06-26T12:26:26;8.23;;;6.65;;
55025;SDS011;40925;45.666;18.994;2023-06-26T12:28:53;4.25;;;3.50;;
55025;SDS011;40925;45.666;18.994;2023-06-26T12:31:26;7.97;;;3.72;;
55025;SDS011;40925;45.666;18.994;2023-06-26T12:37:06;6.63;;;3.95;;
55025;SDS011;40925;45.666;18.994;2023-06-26T12:42:22;4.53;;;3.10;;
55025;SDS011;40925;45.666;18.994;2023-06-26T12:44:50;4.05;;;3.00;;
55025;SDS011;40925;45.666;18.994;2023-06-26T12:47:17;5.35;;;3.15;;
55025;SDS011;40925;45.666;18.994;2023-06-26T12:49:45;6.40;;;3.35;;
55025;SDS011;40925;45.666;18.994;2023-06-26T12:52:15;3.88;;;3.30;;
55025;SDS011;40925;45.666;18.994;2023-06-26T12:54:44;5.05;;;3.10;;
55025;SDS011;40925;45.666;18.994;2023-06-26T12:57:11;3.95;;;2.88;;
55025;SDS011;40925;45.666;18.994;2023-06-26T12:59:39;3.40;;;2.80;;
55025;SDS011;40925;45.666;18.994;2023-06-26T13:02:05;4.53;;;3.35;;
55025;SDS011;40925;45.666;18.994;2023-06-26T13:07:29;4.47;;;3.42;;
55025;SDS011;40925;45.666;18.994;2023-06-26T13:09:55;4.93;;;3.30;;
55025;SDS011;40925;45.666;18.994;2023-06-26T13:12:21;4.85;;;3.38;;
55025;SDS011;40925;45.666;18.994;2023-06-26T13:14:46;3.88;;;2.92;;
55025;SDS011;40925;45.666;18.994;2023-06-26T13:17:13;5.80;;;3.90;;
55025;SDS011;40925;45.666;18.994;2023-06-26T13:19:38;3.38;;;2.90;;
55025;SDS011;40925;45.666;18.994;2023-06-26T13:22:04;4.35;;;3.00;;
55025;SDS011;40925;45.666;18.994;2023-06-26T13:24:30;3.85;;;3.40;;
55025;SDS011;40925;45.666;18.994;2023-06-26T13:26:56;3.90;;;3.33;;
55025;SDS011;40925;45.666;18.994;2023-06-26T13:29:21;4.95;;;2.97;;
55025;SDS011;40925;45.666;18.994;2023-06-26T13:31:47;7.95;;;3.10;;
55025;SDS011;40925;45.666;18.994;2023-06-26T13:34:20;3.88;;;2.70;;
55025;SDS011;40925;45.666;18.994;2023-06-26T13:36:47;4.55;;;2.80;;
55025;SDS011;40925;45.666;18.994;2023-06-26T13:39:13;4.80;;;2.80;;
55025;SDS011;40925;45.666;18.994;2023-06-26T13:41:38;3.33;;;2.65;;
55025;SDS011;40925;45.666;18.994;2023-06-26T13:44:04;5.55;;;3.03;;
55025;SDS011;40925;45.666;18.994;2023-06-26T13:46:30;3.90;;;2.80;;
55025;SDS011;40925;45.666;18.994;2023-06-26T13:48:55;3.17;;;2.50;;
55025;SDS011;40925;45.666;18.994;2023-06-26T13:51:21;3.40;;;2.60;;
55025;SDS011;40925;45.666;18.994;2023-06-26T13:53:47;3.60;;;2.80;;
55025;SDS011;40925;45.666;18.994;2023-06-26T13:56:12;3.60;;;2.80;;
55025;SDS011;40925;45.666;18.994;2023-06-26T13:58:38;3.22;;;2.72;;
55025;SDS011;40925;45.666;18.994;2023-06-26T14:01:07;4.28;;;2.60;;
55025;SDS011;40925;45.666;18.994;2023-06-26T14:03:33;2.80;;;2.30;;
55025;SDS011;40925;45.666;18.994;2023-06-26T14:05:58;4.85;;;2.78;;
55025;SDS011;40925;45.666;18.994;2023-06-26T14:08:24;3.03;;;2.42;;
55025;SDS011;40925;45.666;18.994;2023-06-26T14:10:50;5.32;;;2.78;;
55025;SDS011;40925;45.666;18.994;2023-06-26T14:13:16;3.28;;;2.53;;
55025;SDS011;40925;45.666;18.994;2023-06-26T14:15:42;2.75;;;2.38;;
55025;SDS011;40925;45.666;18.994;2023-06-26T14:18:09;3.65;;;2.45;;
55025;SDS011;40925;45.666;18.994;2023-06-26T14:20:34;3.30;;;2.55;;
55025;SDS011;40925;45.666;18.994;2023-06-26T14:23:01;4.43;;;2.30;;
55025;SDS011;40925;45.666;18.994;2023-06-26T14:25:27;4.03;;;2.17;;
55025;SDS011;40925;45.666;18.994;2023-06-26T14:27:54;4.15;;;2.40;;
55025;SDS011;40925;45.666;18.994;2023-06-26T14:30:21;3.38;;;2.75;;
55025;SDS011;40925;45.666;18.994;2023-06-26T14:32:47;4.47;;;2.70;;
55025;SDS011;40925;45.666;18.994;2023-06-26T14:35:12;3.53;;;2.38;;
55025;SDS011;40925;45.666;18.994;2023-06-26T14:37:38;4.10;;;2.33;;
55025;SDS011;40925;45.666;18.994;2023-06-26T14:40:05;2.75;;;2.33;;
55025;SDS011;40925;45.666;18.994;2023-06-26T14:42:32;4.95;;;2.60;;
55025;SDS011;40925;45.666;18.994;2023-06-26T14:44:58;3.10;;;2.30;;
55025;SDS011;40925;45.666;18.994;2023-06-26T14:47:24;4.35;;;2.25;;
55025;SDS011;40925;45.666;18.994;2023-06-26T14:49:50;2.55;;;2.10;;
55025;SDS011;40925;45.666;18.994;2023-06-26T14:52:15;3.28;;;2.10;;
55025;SDS011;40925;45.666;18.994;2023-06-26T14:54:41;2.70;;;2.38;;
55025;SDS011;40925;45.666;18.994;2023-06-26T14:57:07;3.47;;;2.45;;
55025;SDS011;40925;45.666;18.994;2023-06-26T14:59:32;2.45;;;2.20;;
55025;SDS011;40925;45.666;18.994;2023-06-26T15:01:58;3.38;;;2.35;;
55025;SDS011;40925;45.666;18.994;2023-06-26T15:04:24;4.13;;;2.35;;
55025;SDS011;40925;45.666;18.994;2023-06-26T15:06:50;3.47;;;2.38;;
55025;SDS011;40925;45.666;18.994;2023-06-26T15:09:15;3.33;;;2.38;;
55025;SDS011;40925;45.666;18.994;2023-06-26T15:11:41;3.53;;;2.70;;
55025;SDS011;40925;45.666;18.994;2023-06-26T15:14:08;3.97;;;2.22;;
55025;SDS011;40925;45.666;18.994;2023-06-26T15:16:34;3.08;;;2.50;;